sensor_id;sensor_type;location;lat;lon;timestamp;pressure;altitude;pressure_sealevel;temperature;humidity
72677;BME280;60755;51.374;10.662;2023-03-22T00:01:09;96870.81;;;6.94;100.00
72677;BME280;60755;51.374;10.662;2023-03-22T00:03:37;96863.91;;;7.00;100.00
72677;BME280;60755;51.374;10.662;2023-03-22T00:06:04;96866.38;;;6.95;100.00
72677;BME280;60755;51.374;10.662;2023-03-22T00:08:31;96858.75;;;6.93;100.00
72677;BME280;60755;51.374;10.662;2023-03-22T00:10:58;96857.97;;;6.93;100.00
72677;BME280;60755;51.374;10.662;2023-03-22T00:13:26;96850.00;;;6.88;100.00
72677;BME280;60755;51.374;10.662;2023-03-22T00:15:54;96856.59;;;6.90;100.00
72677;BME280;60755;51.374;10.662;2023-03-22T00:18:23;96854.78;;;6.91;100.00
72677;BME280;60755;51.374;10.662;2023-03-22T00:20:52;96852.59;;;6.88;100.00
72677;BME280;60755;51.374;10.662;2023-03-22T00:23:20;96850.44;;;6.85;100.00
72677;BME280;60755;51.374;10.662;2023-03-22T00:25:47;96849.66;;;6.84;100.00
72677;BME280;60755;51.374;10.662;2023-03-22T00:28:14;96846.97;;;6.72;100.00
72677;BME280;60755;51.374;10.662;2023-03-22T00:30:42;96839.44;;;6.64;100.00
72677;BME280;60755;51.374;10.662;2023-03-22T00:33:09;96835.31;;;6.57;100.00
72677;BME280;60755;51.374;10.662;2023-03-22T00:35:38;96833.22;;;6.47;100.00
72677;BME280;60755;51.374;10.662;2023-03-22T00:38:04;96827.78;;;6.30;100.00
72677;BME280;60755;51.374;10.662;2023-03-22T00:40:38;96829.03;;;6.28;100.00
72677;BME280;60755;51.374;10.662;2023-03-22T00:43:05;96831.69;;;6.21;100.00
72677;BME280;60755;51.374;10.662;2023-03-22T00:45:32;96825.53;;;6.15;100.00
72677;BME280;60755;51.374;10.662;2023-03-22T00:48:00;96824.38;;;6.11;100.00
72677;BME280;60755;51.374;10.662;2023-03-22T00:50:28;96821.59;;;6.06;100.00
72677;BME280;60755;51.374;10.662;2023-03-22T00:52:56;96819.84;;;6.00;100.00
72677;BME280;60755;51.374;10.662;2023-03-22T00:55:23;96827.09;;;5.98;100.00
72677;BME280;60755;51.374;10.662;2023-03-22T00:57:50;96836.56;;;5.93;100.00
72677;BME280;60755;51.374;10.662;2023-03-22T01:00:17;96831.34;;;5.93;100.00
72677;BME280;60755;51.374;10.662;2023-03-22T01:02:44;96834.97;;;5.92;100.00
72677;BME280;60755;51.374;10.662;2023-03-22T01:05:16;96829.75;;;5.92;100.00
72677;BME280;60755;51.374;10.662;2023-03-22T01:07:47;96824.53;;;5.92;100.00
72677;BME280;60755;51.374;10.662;2023-03-22T01:10:17;96826.19;;;5.86;100.00
72677;BME280;60755;51.374;10.662;2023-03-22T01:12:44;96821.63;;;5.81;100.00
72677;BME280;60755;51.374;10.662;2023-03-22T01:15:12;96822.25;;;5.77;100.00
72677;BME280;60755;51.374;10.662;2023-03-22T01:17:39;96817.81;;;5.77;100.00
72677;BME280;60755;51.374;10.662;2023-03-22T01:20:07;96815.44;;;5.76;100.00
72677;BME280;60755;51.374;10.662;2023-03-22T01:22:35;96815.22;;;5.77;100.00
72677;BME280;60755;51.374;10.662;2023-03-22T01:25:03;96810.59;;;5.79;100.00
72677;BME280;60755;51.374;10.662;2023-03-22T01:27:31;96808.00;;;5.79;100.00
72677;BME280;60755;51.374;10.662;2023-03-22T01:29:58;96803.00;;;5.78;100.00
72677;BME280;60755;51.374;10.662;2023-03-22T01:32:25;96804.59;;;5.79;100.00
72677;BME280;60755;51.374;10.662;2023-03-22T01:34:52;96814.63;;;5.75;100.00
72677;BME280;60755;51.374;10.662;2023-03-22T01:37:20;96807.25;;;5.72;100.00
72677;BME280;60755;51.374;10.662;2023-03-22T01:39:50;96806.88;;;5.69;100.00
72677;BME280;60755;51.374;10.662;2023-03-22T01:42:17;96795.28;;;5.65;100.00
72677;BME280;60755;51.374;10.662;2023-03-22T01:45:26;96801.31;;;5.65;100.00
72677;BME280;60755;51.374;10.662;2023-03-22T01:47:59;96802.94;;;5.59;100.00
72677;BME280;60755;51.374;10.662;2023-03-22T01:50:31;96797.59;;;5.54;100.00
72677;BME280;60755;51.374;10.662;2023-03-22T01:52:59;96790.75;;;5.53;100.00
72677;BME280;60755;51.374;10.662;2023-03-22T01:55:32;96795.25;;;5.46;100.00
72677;BME280;60755;51.374;10.662;2023-03-22T01:58:07;96785.81;;;5.45;100.00
72677;BME280;60755;51.374;10.662;2023-03-22T02:00:44;96784.41;;;5.49;100.00
72677;BME280;60755;51.374;10.662;2023-03-22T02:03:29;96783.22;;;5.45;100.00
72677;BME280;60755;51.374;10.662;2023-03-22T02:05:58;96781.78;;;5.49;100.00
72677;BME280;60755;51.374;10.662;2023-03-22T02:08:25;96777.16;;;5.51;100.00
72677;BME280;60755;51.374;10.662;2023-03-22T02:11:02;96783.97;;;5.52;100.00
72677;BME280;60755;51.374;10.662;2023-03-22T02:13:51;96783.38;;;5.50;100.00
72677;BME280;60755;51.374;10.662;2023-03-22T02:16:51;96781.97;;;5.54;100.00
72677;BME280;60755;51.374;10.662;2023-03-22T02:22:51;96777.28;;;5.38;100.00
72677;BME280;60755;51.374;10.662;2023-03-22T02:25:45;96779.13;;;5.31;100.00
72677;BME280;60755;51.374;10.662;2023-03-22T02:28:30;96774.94;;;5.30;100.00
72677;BME280;60755;51.374;10.662;2023-03-22T02:31:16;96778.53;;;5.29;100.00
72677;BME280;60755;51.374;10.662;2023-03-22T02:34:14;96780.34;;;5.28;100.00
72677;BME280;60755;51.374;10.662;2023-03-22T02:37:14;96768.44;;;5.39;100.00
72677;BME280;60755;51.374;10.662;2023-03-22T02:39:46;96768.88;;;5.36;100.00
72677;BME280;60755;51.374;10.662;2023-03-22T02:42:24;96765.47;;;5.36;100.00
72677;BME280;60755;51.374;10.662;2023-03-22T02:44:58;96765.69;;;5.34;100.00
72677;BME280;60755;51.374;10.662;2023-03-22T02:47:34;96763.38;;;5.44;100.00
72677;BME280;60755;51.374;10.662;2023-03-22T02:50:09;96766.88;;;5.38;100.00
72677;BME280;60755;51.374;10.662;2023-03-22T02:52:39;96762.84;;;5.36;100.00
72677;BME280;60755;51.374;10.662;2023-03-22T02:55:14;96763.25;;;5.39;100.00
72677;BME280;60755;51.374;10.662;2023-03-22T02:57:45;96760.41;;;5.41;100.00
72677;BME280;60755;51.374;10.662;2023-03-22T03:00:15;96758.03;;;5.39;100.00
72677;BME280;60755;51.374;10.662;2023-03-22T03:02:46;96754.25;;;5.35;100.00
72677;BME280;60755;51.374;10.662;2023-03-22T03:05:16;96750.69;;;5.29;100.00
72677;BME280;60755;51.374;10.662;2023-03-22T03:07:47;96750.53;;;5.24;100.00
72677;BME280;60755;51.374;10.662;2023-03-22T03:10:19;96752.75;;;5.21;100.00
72677;BME280;60755;51.374;10.662;2023-03-22T03:12:46;96751.69;;;5.28;100.00
72677;BME280;60755;51.374;10.662;2023-03-22T03:15:15;96746.47;;;5.28;100.00
72677;BME280;60755;51.374;10.662;2023-03-22T03:17:54;96746.06;;;5.31;100.00
72677;BME280;60755;51.374;10.662;2023-03-22T03:20:30;96742.88;;;5.29;100.00
72677;BME280;60755;51.374;10.662;2023-03-22T03:23:09;96748.50;;;5.26;100.00
72677;BME280;60755;51.374;10.662;2023-03-22T03:25:44;96745.69;;;5.28;100.00
72677;BME280;60755;51.374;10.662;2023-03-22T03:28:19;96746.47;;;5.28;100.00
72677;BME280;60755;51.374;10.662;2023-03-22T03:30:59;96743.25;;;5.33;100.00
72677;BME280;60755;51.374;10.662;2023-03-22T03:33:32;96747.28;;;5.29;100.00
72677;BME280;60755;51.374;10.662;2023-03-22T03:36:06;96749.69;;;5.30;100.00
72677;BME280;60755;51.374;10.662;2023-03-22T03:38:37;96745.41;;;5.36;100.00
72677;BME280;60755;51.374;10.662;2023-03-22T03:41:09;96744.03;;;5.33;100.00
72677;BME280;60755;51.374;10.662;2023-03-22T03:43:38;96745.00;;;5.39;100.00
72677;BME280;60755;51.374;10.662;2023-03-22T03:46:08;96751.63;;;5.35;100.00
72677;BME280;60755;51.374;10.662;2023-03-22T03:48:36;96740.19;;;5.36;100.00
72677;BME280;60755;51.374;10.662;2023-03-22T03:51:04;96745.84;;;5.33;100.00
72677;BME280;60755;51.374;10.662;2023-03-22T03:53:31;96744.00;;;5.40;100.00
72677;BME280;60755;51.374;10.662;2023-03-22T03:55:58;96741.78;;;5.37;100.00
72677;BME280;60755;51.374;10.662;2023-03-22T03:58:33;96746.44;;;5.35;100.00
72677;BME280;60755;51.374;10.662;2023-03-22T04:01:00;96746.59;;;5.40;100.00
72677;BME280;60755;51.374;10.662;2023-03-22T04:03:51;96750.47;;;5.31;100.00
72677;BME280;60755;51.374;10.662;2023-03-22T04:06:41;96745.91;;;5.26;100.00
72677;BME280;60755;51.374;10.662;2023-03-22T04:09:14;96753.41;;;5.16;100.00
72677;BME280;60755;51.374;10.662;2023-03-22T04:11:44;96746.66;;;5.09;100.00
72677;BME280;60755;51.374;10.662;2023-03-22T04:14:14;96748.72;;;5.00;100.00
72677;BME280;60755;51.374;10.662;2023-03-22T04:16:41;96752.38;;;4.92;100.00
72677;BME280;60755;51.374;10.662;2023-03-22T04:19:12;96735.38;;;4.90;100.00
72677;BME280;60755;51.374;10.662;2023-03-22T04:21:39;96737.97;;;4.90;100.00
72677;BME280;60755;51.374;10.662;2023-03-22T04:24:08;96739.19;;;4.87;100.00
72677;BME280;60755;51.374;10.662;2023-03-22T04:26:39;96733.75;;;4.89;100.00
72677;BME280;60755;51.374;10.662;2023-03-22T04:29:19;96731.97;;;4.89;100.00
72677;BME280;60755;51.374;10.662;2023-03-22T04:31:52;96727.34;;;4.91;100.00
72677;BME280;60755;51.374;10.662;2023-03-22T04:34:27;96730.00;;;4.85;100.00
72677;BME280;60755;51.374;10.662;2023-03-22T04:36:59;96718.03;;;4.77;100.00
72677;BME280;60755;51.374;10.662;2023-03-22T04:39:29;96717.66;;;4.73;100.00
72677;BME280;60755;51.374;10.662;2023-03-22T04:42:16;96717.84;;;4.72;100.00
72677;BME280;60755;51.374;10.662;2023-03-22T04:44:46;96712.50;;;4.67;100.00
72677;BME280;60755;51.374;10.662;2023-03-22T04:47:13;96716.50;;;4.63;100.00
72677;BME280;60755;51.374;10.662;2023-03-22T04:49:40;96717.34;;;4.57;100.00
72677;BME280;60755;51.374;10.662;2023-03-22T04:52:07;96714.94;;;4.55;100.00
72677;BME280;60755;51.374;10.662;2023-03-22T04:54:36;96710.53;;;4.56;100.00
72677;BME280;60755;51.374;10.662;2023-03-22T04:57:03;96705.34;;;4.56;100.00
72677;BME280;60755;51.374;10.662;2023-03-22T04:59:36;96703.75;;;4.55;100.00
72677;BME280;60755;51.374;10.662;2023-03-22T05:02:04;96703.28;;;4.64;100.00
72677;BME280;60755;51.374;10.662;2023-03-22T05:04:38;96709.50;;;4.63;100.00
72677;BME280;60755;51.374;10.662;2023-03-22T05:07:13;96700.91;;;4.63;100.00
72677;BME280;60755;51.374;10.662;2023-03-22T05:09:46;96695.28;;;4.66;100.00
72677;BME280;60755;51.374;10.662;2023-03-22T05:12:14;96687.81;;;4.76;100.00
72677;BME280;60755;51.374;10.662;2023-03-22T05:14:48;96695.94;;;4.86;100.00
72677;BME280;60755;51.374;10.662;2023-03-22T05:17:21;96692.22;;;5.00;100.00
72677;BME280;60755;51.374;10.662;2023-03-22T05:19:50;96697.16;;;5.09;100.00
72677;BME280;60755;51.374;10.662;2023-03-22T05:22:18;96698.78;;;5.28;100.00
72677;BME280;60755;51.374;10.662;2023-03-22T05:24:48;96697.94;;;5.34;100.00
72677;BME280;60755;51.374;10.662;2023-03-22T05:27:20;96698.97;;;5.51;100.00
72677;BME280;60755;51.374;10.662;2023-03-22T05:29:57;96694.78;;;5.50;100.00
72677;BME280;60755;51.374;10.662;2023-03-22T05:32:36;96699.84;;;5.45;100.00
72677;BME280;60755;51.374;10.662;2023-03-22T05:35:09;96699.53;;;5.35;100.00
72677;BME280;60755;51.374;10.662;2023-03-22T05:37:41;96699.47;;;5.42;100.00
72677;BME280;60755;51.374;10.662;2023-03-22T05:40:08;96703.72;;;5.36;100.00
72677;BME280;60755;51.374;10.662;2023-03-22T05:42:40;96706.50;;;5.41;100.00
72677;BME280;60755;51.374;10.662;2023-03-22T05:45:23;96708.19;;;5.54;100.00
72677;BME280;60755;51.374;10.662;2023-03-22T05:48:04;96706.22;;;5.49;100.00
72677;BME280;60755;51.374;10.662;2023-03-22T05:50:32;96695.69;;;5.63;100.00
72677;BME280;60755;51.374;10.662;2023-03-22T05:53:00;96702.47;;;5.64;100.00
72677;BME280;60755;51.374;10.662;2023-03-22T05:55:36;96697.25;;;5.82;100.00
72677;BME280;60755;51.374;10.662;2023-03-22T05:58:04;96704.97;;;5.95;100.00
72677;BME280;60755;51.374;10.662;2023-03-22T06:00:35;96707.56;;;6.13;100.00
72677;BME280;60755;51.374;10.662;2023-03-22T06:03:24;96706.16;;;6.29;100.00
72677;BME280;60755;51.374;10.662;2023-03-22T06:05:59;96708.31;;;6.32;100.00
72677;BME280;60755;51.374;10.662;2023-03-22T06:08:36;96704.31;;;6.48;100.00
72677;BME280;60755;51.374;10.662;2023-03-22T06:11:04;96708.47;;;6.67;100.00
72677;BME280;60755;51.374;10.662;2023-03-22T06:13:32;96707.81;;;6.84;100.00
72677;BME280;60755;51.374;10.662;2023-03-22T06:16:00;96710.50;;;7.66;100.00
72677;BME280;60755;51.374;10.662;2023-03-22T06:18:29;96708.81;;;7.48;100.00
72677;BME280;60755;51.374;10.662;2023-03-22T06:21:05;96703.91;;;7.28;100.00
72677;BME280;60755;51.374;10.662;2023-03-22T06:23:32;96704.00;;;7.10;100.00
72677;BME280;60755;51.374;10.662;2023-03-22T06:25:59;96697.09;;;7.50;100.00
72677;BME280;60755;51.374;10.662;2023-03-22T06:28:26;96701.91;;;8.46;99.06
72677;BME280;60755;51.374;10.662;2023-03-22T06:30:55;96696.03;;;9.51;89.82
72677;BME280;60755;51.374;10.662;2023-03-22T06:33:33;96699.94;;;9.87;89.68
72677;BME280;60755;51.374;10.662;2023-03-22T06:36:09;96700.19;;;10.51;84.14
72677;BME280;60755;51.374;10.662;2023-03-22T06:38:47;96707.31;;;10.12;86.25
72677;BME280;60755;51.374;10.662;2023-03-22T06:41:13;96702.78;;;9.86;87.00
72677;BME280;60755;51.374;10.662;2023-03-22T06:43:40;96703.44;;;9.04;89.46
72677;BME280;60755;51.374;10.662;2023-03-22T06:46:29;96705.72;;;8.83;92.85
72677;BME280;60755;51.374;10.662;2023-03-22T06:49:06;96700.34;;;9.23;90.99
72677;BME280;60755;51.374;10.662;2023-03-22T06:51:34;96706.19;;;9.86;90.91
72677;BME280;60755;51.374;10.662;2023-03-22T06:54:00;96715.97;;;11.10;83.29
72677;BME280;60755;51.374;10.662;2023-03-22T06:56:28;96716.59;;;12.85;77.72
72677;BME280;60755;51.374;10.662;2023-03-22T06:58:55;96718.91;;;14.04;73.14
72677;BME280;60755;51.374;10.662;2023-03-22T07:01:23;96712.00;;;15.75;65.53
72677;BME280;60755;51.374;10.662;2023-03-22T07:03:50;96711.09;;;15.55;64.84
72677;BME280;60755;51.374;10.662;2023-03-22T07:06:22;96710.63;;;16.49;65.79
72677;BME280;60755;51.374;10.662;2023-03-22T07:08:50;96703.91;;;15.90;63.84
72677;BME280;60755;51.374;10.662;2023-03-22T07:11:20;96701.88;;;15.82;65.96
72677;BME280;60755;51.374;10.662;2023-03-22T07:13:55;96715.53;;;18.24;57.56
72677;BME280;60755;51.374;10.662;2023-03-22T07:16:24;96715.78;;;16.59;60.86
72677;BME280;60755;51.374;10.662;2023-03-22T07:18:54;96707.28;;;17.19;60.33
72677;BME280;60755;51.374;10.662;2023-03-22T07:21:23;96709.03;;;16.29;62.09
72677;BME280;60755;51.374;10.662;2023-03-22T07:23:55;96712.66;;;14.93;65.40
72677;BME280;60755;51.374;10.662;2023-03-22T07:26:26;96711.03;;;13.83;68.50
72677;BME280;60755;51.374;10.662;2023-03-22T07:28:56;96713.16;;;13.61;71.66
72677;BME280;60755;51.374;10.662;2023-03-22T07:31:27;96702.22;;;12.30;75.95
72677;BME280;60755;51.374;10.662;2023-03-22T07:34:03;96702.34;;;11.18;82.51
72677;BME280;60755;51.374;10.662;2023-03-22T07:36:38;96689.94;;;11.51;81.89
72677;BME280;60755;51.374;10.662;2023-03-22T07:39:08;96687.84;;;11.53;81.82
72677;BME280;60755;51.374;10.662;2023-03-22T07:41:40;96691.75;;;11.08;83.55
72677;BME280;60755;51.374;10.662;2023-03-22T07:44:31;96692.44;;;10.93;85.18
72677;BME280;60755;51.374;10.662;2023-03-22T07:47:09;96692.03;;;10.80;85.09
72677;BME280;60755;51.374;10.662;2023-03-22T07:49:43;96691.09;;;10.64;86.50
72677;BME280;60755;51.374;10.662;2023-03-22T07:52:18;96686.97;;;11.00;85.70
72677;BME280;60755;51.374;10.662;2023-03-22T07:54:46;96685.59;;;11.30;84.96
72677;BME280;60755;51.374;10.662;2023-03-22T07:57:13;96688.63;;;11.48;83.38
72677;BME280;60755;51.374;10.662;2023-03-22T07:59:46;96691.69;;;11.77;85.87
72677;BME280;60755;51.374;10.662;2023-03-22T08:02:14;96687.06;;;11.53;85.52
72677;BME280;60755;51.374;10.662;2023-03-22T08:04:46;96684.16;;;11.54;85.27
72677;BME280;60755;51.374;10.662;2023-03-22T08:07:21;96679.31;;;11.36;85.88
72677;BME280;60755;51.374;10.662;2023-03-22T08:09:50;96677.16;;;11.28;88.67
72677;BME280;60755;51.374;10.662;2023-03-22T08:12:17;96667.88;;;11.57;85.36
72677;BME280;60755;51.374;10.662;2023-03-22T08:14:47;96673.00;;;11.37;86.47
72677;BME280;60755;51.374;10.662;2023-03-22T08:17:19;96667.22;;;11.35;84.82
72677;BME280;60755;51.374;10.662;2023-03-22T08:19:46;96665.31;;;11.25;86.25
72677;BME280;60755;51.374;10.662;2023-03-22T08:22:22;96669.50;;;11.63;85.45
72677;BME280;60755;51.374;10.662;2023-03-22T08:25:19;96659.91;;;11.42;86.16
72677;BME280;60755;51.374;10.662;2023-03-22T08:27:46;96660.06;;;11.30;86.57
72677;BME280;60755;51.374;10.662;2023-03-22T08:30:14;96668.84;;;11.41;85.31
72677;BME280;60755;51.374;10.662;2023-03-22T08:32:42;96664.53;;;11.30;85.22
72677;BME280;60755;51.374;10.662;2023-03-22T08:35:09;96660.38;;;11.34;85.79
72677;BME280;60755;51.374;10.662;2023-03-22T08:37:38;96654.44;;;11.54;85.29
72677;BME280;60755;51.374;10.662;2023-03-22T08:40:08;96657.44;;;11.77;85.42
72677;BME280;60755;51.374;10.662;2023-03-22T08:42:40;96665.44;;;11.88;85.02
72677;BME280;60755;51.374;10.662;2023-03-22T08:45:08;96662.09;;;12.08;81.96
72677;BME280;60755;51.374;10.662;2023-03-22T08:47:40;96655.38;;;11.80;83.50
72677;BME280;60755;51.374;10.662;2023-03-22T08:50:09;96655.06;;;12.28;83.49
72677;BME280;60755;51.374;10.662;2023-03-22T08:52:49;96652.75;;;12.68;81.77
72677;BME280;60755;51.374;10.662;2023-03-22T08:55:30;96652.22;;;12.81;79.54
72677;BME280;60755;51.374;10.662;2023-03-22T08:58:12;96647.19;;;12.44;79.65
72677;BME280;60755;51.374;10.662;2023-03-22T09:00:59;96655.59;;;12.30;82.17
72677;BME280;60755;51.374;10.662;2023-03-22T09:03:42;96644.00;;;12.37;80.91
72677;BME280;60755;51.374;10.662;2023-03-22T09:06:09;96643.00;;;12.68;80.00
72677;BME280;60755;51.374;10.662;2023-03-22T09:08:40;96644.06;;;12.62;80.09
72677;BME280;60755;51.374;10.662;2023-03-22T09:11:11;96637.19;;;12.61;79.35
72677;BME280;60755;51.374;10.662;2023-03-22T09:13:38;96632.44;;;13.19;79.14
72677;BME280;60755;51.374;10.662;2023-03-22T09:16:06;96625.59;;;13.28;77.57
72677;BME280;60755;51.374;10.662;2023-03-22T09:18:34;96612.69;;;12.86;78.99
72677;BME280;60755;51.374;10.662;2023-03-22T09:21:09;96600.53;;;12.75;79.11
72677;BME280;60755;51.374;10.662;2023-03-22T09:23:52;96615.03;;;13.28;77.45
72677;BME280;60755;51.374;10.662;2023-03-22T09:26:24;96597.47;;;13.78;74.92
72677;BME280;60755;51.374;10.662;2023-03-22T09:28:53;96605.44;;;13.63;74.21
72677;BME280;60755;51.374;10.662;2023-03-22T09:31:20;96604.28;;;13.89;75.91
72677;BME280;60755;51.374;10.662;2023-03-22T09:33:56;96608.22;;;13.97;73.52
72677;BME280;60755;51.374;10.662;2023-03-22T09:36:23;96600.94;;;13.68;75.53
72677;BME280;60755;51.374;10.662;2023-03-22T09:38:51;96615.03;;;13.28;75.39
72677;BME280;60755;51.374;10.662;2023-03-22T09:41:22;96602.13;;;12.96;75.92
72677;BME280;60755;51.374;10.662;2023-03-22T09:43:53;96601.84;;;13.18;75.68
72677;BME280;60755;51.374;10.662;2023-03-22T09:46:29;96613.47;;;13.02;75.39
72677;BME280;60755;51.374;10.662;2023-03-22T09:48:58;96609.25;;;12.60;75.64
72677;BME280;60755;51.374;10.662;2023-03-22T09:51:32;96600.28;;;12.66;76.16
72677;BME280;60755;51.374;10.662;2023-03-22T09:54:10;96597.38;;;13.03;75.68
72677;BME280;60755;51.374;10.662;2023-03-22T09:56:39;96608.72;;;13.24;75.52
72677;BME280;60755;51.374;10.662;2023-03-22T09:59:11;96607.66;;;13.20;75.06
72677;BME280;60755;51.374;10.662;2023-03-22T10:01:44;96597.09;;;13.20;72.64
72677;BME280;60755;51.374;10.662;2023-03-22T10:04:26;96587.88;;;12.67;74.10
72677;BME280;60755;51.374;10.662;2023-03-22T10:07:04;96601.84;;;12.82;73.60
72677;BME280;60755;51.374;10.662;2023-03-22T10:09:40;96601.09;;;12.62;75.07
72677;BME280;60755;51.374;10.662;2023-03-22T10:12:14;96593.94;;;13.03;73.26
72677;BME280;60755;51.374;10.662;2023-03-22T10:14:49;96583.56;;;13.52;73.13
72677;BME280;60755;51.374;10.662;2023-03-22T10:17:18;96570.47;;;14.36;71.08
72677;BME280;60755;51.374;10.662;2023-03-22T10:19:52;96571.03;;;14.72;67.92
72677;BME280;60755;51.374;10.662;2023-03-22T10:22:24;96571.31;;;13.82;69.19
72677;BME280;60755;51.374;10.662;2023-03-22T10:24:56;96559.25;;;14.10;69.66
72677;BME280;60755;51.374;10.662;2023-03-22T10:27:25;96560.47;;;13.88;70.46
72677;BME280;60755;51.374;10.662;2023-03-22T10:29:57;96548.50;;;14.40;66.05
72677;BME280;60755;51.374;10.662;2023-03-22T10:32:29;96540.16;;;13.79;68.85
72677;BME280;60755;51.374;10.662;2023-03-22T10:34:57;96544.69;;;13.73;69.69
72677;BME280;60755;51.374;10.662;2023-03-22T10:37:29;96538.59;;;14.22;67.94
72677;BME280;60755;51.374;10.662;2023-03-22T10:40:01;96529.78;;;13.87;68.83
72677;BME280;60755;51.374;10.662;2023-03-22T10:42:35;96533.97;;;13.98;70.32
72677;BME280;60755;51.374;10.662;2023-03-22T10:45:04;96531.06;;;13.95;69.29
72677;BME280;60755;51.374;10.662;2023-03-22T10:47:35;96538.22;;;14.34;68.83
72677;BME280;60755;51.374;10.662;2023-03-22T10:50:10;96527.50;;;14.20;67.85
72677;BME280;60755;51.374;10.662;2023-03-22T10:52:41;96537.53;;;14.23;67.17
72677;BME280;60755;51.374;10.662;2023-03-22T10:55:14;96532.53;;;14.16;67.31
72677;BME280;60755;51.374;10.662;2023-03-22T10:57:46;96537.63;;;14.42;64.94
72677;BME280;60755;51.374;10.662;2023-03-22T11:00:17;96538.53;;;14.27;64.86
72677;BME280;60755;51.374;10.662;2023-03-22T11:02:50;96535.97;;;14.17;67.05
72677;BME280;60755;51.374;10.662;2023-03-22T11:05:21;96537.94;;;14.35;65.91
72677;BME280;60755;51.374;10.662;2023-03-22T11:07:48;96536.72;;;14.62;67.31
72677;BME280;60755;51.374;10.662;2023-03-22T11:10:23;96532.03;;;14.14;66.52
72677;BME280;60755;51.374;10.662;2023-03-22T11:12:54;96529.50;;;14.33;65.34
72677;BME280;60755;51.374;10.662;2023-03-22T11:15:25;96529.66;;;14.13;66.83
72677;BME280;60755;51.374;10.662;2023-03-22T11:17:58;96541.66;;;14.34;66.35
72677;BME280;60755;51.374;10.662;2023-03-22T11:20:26;96530.25;;;14.44;66.17
72677;BME280;60755;51.374;10.662;2023-03-22T11:22:54;96523.09;;;14.44;65.68
72677;BME280;60755;51.374;10.662;2023-03-22T11:25:25;96531.97;;;14.59;65.78
72677;BME280;60755;51.374;10.662;2023-03-22T11:27:55;96521.41;;;14.88;63.93
72677;BME280;60755;51.374;10.662;2023-03-22T11:30:24;96526.88;;;14.67;65.26
72677;BME280;60755;51.374;10.662;2023-03-22T11:33:14;96525.72;;;14.49;64.61
72677;BME280;60755;51.374;10.662;2023-03-22T11:35:43;96532.69;;;13.91;64.46
72677;BME280;60755;51.374;10.662;2023-03-22T11:38:22;96534.78;;;14.33;64.26
72677;BME280;60755;51.374;10.662;2023-03-22T11:40:54;96531.47;;;14.57;63.83
72677;BME280;60755;51.374;10.662;2023-03-22T11:43:23;96534.63;;;14.19;62.22
72677;BME280;60755;51.374;10.662;2023-03-22T11:45:54;96529.22;;;13.95;64.53
72677;BME280;60755;51.374;10.662;2023-03-22T11:48:23;96536.81;;;14.07;64.33
72677;BME280;60755;51.374;10.662;2023-03-22T11:50:53;96532.34;;;14.08;65.01
72677;BME280;60755;51.374;10.662;2023-03-22T11:53:21;96539.38;;;14.22;63.23
72677;BME280;60755;51.374;10.662;2023-03-22T11:55:54;96533.03;;;14.18;62.93
72677;BME280;60755;51.374;10.662;2023-03-22T11:58:27;96528.72;;;14.33;62.91
72677;BME280;60755;51.374;10.662;2023-03-22T12:00:58;96525.13;;;14.58;64.17
72677;BME280;60755;51.374;10.662;2023-03-22T12:03:28;96531.97;;;14.93;62.70
72677;BME280;60755;51.374;10.662;2023-03-22T12:05:57;96519.72;;;14.97;62.79
72677;BME280;60755;51.374;10.662;2023-03-22T12:08:34;96509.19;;;14.68;63.10
72677;BME280;60755;51.374;10.662;2023-03-22T12:11:11;96517.16;;;14.63;63.41
72677;BME280;60755;51.374;10.662;2023-03-22T12:13:45;96513.94;;;14.66;62.16
72677;BME280;60755;51.374;10.662;2023-03-22T12:16:19;96504.28;;;14.80;62.43
72677;BME280;60755;51.374;10.662;2023-03-22T12:18:50;96510.50;;;14.31;63.73
72677;BME280;60755;51.374;10.662;2023-03-22T12:21:23;96501.06;;;14.83;63.36
72677;BME280;60755;51.374;10.662;2023-03-22T12:23:50;96498.81;;;15.00;60.83
72677;BME280;60755;51.374;10.662;2023-03-22T12:26:24;96493.31;;;14.92;61.49
72677;BME280;60755;51.374;10.662;2023-03-22T12:28:55;96486.41;;;14.67;61.07
72677;BME280;60755;51.374;10.662;2023-03-22T12:31:24;96490.56;;;14.78;62.33
72677;BME280;60755;51.374;10.662;2023-03-22T12:33:53;96484.78;;;14.76;60.74
72677;BME280;60755;51.374;10.662;2023-03-22T12:36:30;96492.13;;;14.50;61.26
72677;BME280;60755;51.374;10.662;2023-03-22T12:39:01;96488.66;;;14.54;61.43
72677;BME280;60755;51.374;10.662;2023-03-22T12:41:34;96496.97;;;14.72;62.27
72677;BME280;60755;51.374;10.662;2023-03-22T12:44:09;96494.13;;;14.92;61.38
72677;BME280;60755;51.374;10.662;2023-03-22T12:46:45;96488.72;;;15.02;61.97
72677;BME280;60755;51.374;10.662;2023-03-22T12:49:20;96481.69;;;15.41;60.46
72677;BME280;60755;51.374;10.662;2023-03-22T12:51:53;96475.84;;;15.62;58.30
72677;BME280;60755;51.374;10.662;2023-03-22T12:54:26;96484.66;;;15.95;57.81
72677;BME280;60755;51.374;10.662;2023-03-22T12:56:55;96464.00;;;16.44;58.04
72677;BME280;60755;51.374;10.662;2023-03-22T12:59:26;96469.19;;;15.84;57.98
72677;BME280;60755;51.374;10.662;2023-03-22T13:01:58;96465.47;;;15.85;57.67
72677;BME280;60755;51.374;10.662;2023-03-22T13:04:30;96464.78;;;15.55;58.64
72677;BME280;60755;51.374;10.662;2023-03-22T13:07:09;96467.84;;;15.25;60.83
72677;BME280;60755;51.374;10.662;2023-03-22T13:09:39;96464.75;;;14.94;60.39
72677;BME280;60755;51.374;10.662;2023-03-22T13:12:36;96473.63;;;15.03;59.17
72677;BME280;60755;51.374;10.662;2023-03-22T13:15:27;96475.69;;;14.82;59.87
72677;BME280;60755;51.374;10.662;2023-03-22T13:17:55;96479.13;;;15.06;59.26
72677;BME280;60755;51.374;10.662;2023-03-22T13:20:31;96476.78;;;14.81;61.12